TimeEDT,TemperatureF,Dew PointF,Humidity,Sea Level PressureIn,VisibilityMPH,Wind Direction,Wind SpeedMPH,Gust SpeedMPH,PrecipitationIn,Events,Conditions,WindDirDegrees,DateUTC
12:53 AM,54.0,48.9,83,29.82,10.0,West,3.5,-,N/A,,Clear,280,2013-03-17 04:53:00
1:53 AM,53.1,48.0,83,29.84,10.0,SW,4.6,-,N/A,,Clear,220,2013-03-17 05:53:00
2:53 AM,51.1,46.9,86,29.85,10.0,Calm,Calm,-,N/A,,Clear,0,2013-03-17 06:53:00
3:53 AM,53.1,48.0,83,29.87,10.0,ENE,5.8,-,N/A,,Clear,70,2013-03-17 07:53:00
4:16 AM,51.8,48.2,88,29.90,9.0,NE,10.4,-,N/A,,Scattered Clouds,50,2013-03-17 08:16:00
4:25 AM,51.8,48.2,88,29.89,3.0,ENE,10.4,-,N/A,,Mostly Cloudy,60,2013-03-17 08:25:00
4:29 AM,51.8,50.0,94,29.89,1.8,ENE,11.5,-,N/A,,Mostly Cloudy,60,2013-03-17 08:29:00
4:53 AM,52.0,50.0,93,29.88,2.0,ENE,9.2,-,N/A,,Overcast,70,2013-03-17 08:53:00
5:02 AM,51.8,50.0,94,29.91,6.0,ENE,12.7,19.6,N/A,,Overcast,70,2013-03-17 09:02:00
5:53 AM,52.0,48.9,89,29.92,7.0,ENE,9.2,-,N/A,,Overcast,60,2013-03-17 09:53:00
6:53 AM,50.0,46.0,86,29.94,8.0,ENE,5.8,-,N/A,,Overcast,60,2013-03-17 10:53:00
7:53 AM,48.9,44.1,83,29.97,8.0,ENE,8.1,-,N/A,,Overcast,70,2013-03-17 11:53:00
8:15 AM,48.2,42.8,82,30.01,10.0,East,9.2,16.1,N/A,,Overcast,80,2013-03-17 12:15:00
8:19 AM,48.2,41.0,76,30.01,10.0,East,12.7,18.4,N/A,,Overcast,90,2013-03-17 12:19:00
8:33 AM,48.2,41.0,76,30.02,10.0,ENE,11.5,18.4,N/A,,Overcast,70,2013-03-17 12:33:00
8:40 AM,48.2,39.2,71,30.02,10.0,ENE,13.8,-,N/A,,Overcast,70,2013-03-17 12:40:00
8:53 AM,48.0,39.9,74,30.01,10.0,ENE,8.1,-,N/A,,Overcast,70,2013-03-17 12:53:00
9:53 AM,46.9,39.0,74,30.05,10.0,ENE,8.1,18.4,0.00,,Overcast,70,2013-03-17 13:53:00
10:31 AM,46.4,39.2,76,30.08,10.0,ENE,12.7,-,N/A,,Overcast,60,2013-03-17 14:31:00
10:41 AM,44.6,39.2,81,30.09,10.0,NE,13.8,-,N/A,,Overcast,50,2013-03-17 14:41:00
10:53 AM,45.0,39.0,80,30.06,10.0,East,12.7,19.6,N/A,,Overcast,80,2013-03-17 14:53:00
11:34 AM,44.6,39.2,81,30.10,6.0,ENE,9.2,-,0.01,Rain,Light Rain,70,2013-03-17 15:34:00
11:42 AM,44.6,39.2,81,30.10,7.0,East,12.7,16.1,0.01,Rain,Light Rain,80,2013-03-17 15:42:00
11:53 AM,44.1,39.0,82,30.08,9.0,ENE,11.5,-,0.01,Rain,Light Rain,60,2013-03-17 15:53:00
12:02 PM,44.6,39.2,81,30.10,9.0,ENE,10.4,-,0.00,,Overcast,60,2013-03-17 16:02:00
12:50 PM,44.6,37.4,76,30.12,10.0,ENE,12.7,-,0.00,,Overcast,60,2013-03-17 16:50:00
12:53 PM,44.1,37.9,79,30.10,10.0,ENE,11.5,-,0.00,,Overcast,60,2013-03-17 16:53:00
1:15 PM,42.8,37.4,81,30.11,10.0,ENE,12.7,-,N/A,,Overcast,60,2013-03-17 17:15:00
1:53 PM,43.0,37.0,80,30.09,10.0,ENE,10.4,-,N/A,,Overcast,60,2013-03-17 17:53:00
2:28 PM,42.8,35.6,76,30.09,10.0,ENE,15.0,21.9,N/A,,Overcast,60,2013-03-17 18:28:00
2:53 PM,44.1,36.0,73,30.07,10.0,NE,15.0,-,N/A,,Overcast,50,2013-03-17 18:53:00
3:53 PM,43.0,36.0,76,30.09,10.0,NE,11.5,-,N/A,,Overcast,40,2013-03-17 19:53:00
4:53 PM,43.0,36.0,76,30.08,10.0,NE,12.7,-,N/A,,Overcast,50,2013-03-17 20:53:00
5:53 PM,42.1,36.0,79,30.09,10.0,NE,13.8,-,N/A,,Overcast,50,2013-03-17 21:53:00
6:53 PM,41.0,36.0,82,30.12,10.0,ENE,9.2,-,N/A,,Overcast,60,2013-03-17 22:53:00
7:12 PM,41.0,35.6,81,30.13,10.0,NE,13.8,20.7,N/A,,Overcast,50,2013-03-17 23:12:00
7:53 PM,39.9,35.1,83,30.12,9.0,ENE,10.4,-,N/A,,Overcast,60,2013-03-17 23:53:00
8:53 PM,39.0,36.0,89,30.16,4.0,ENE,9.2,17.3,N/A,,Overcast,60,2013-03-18 00:53:00
9:16 PM,39.2,35.6,87,30.17,2.5,NE,9.2,-,N/A,,Overcast,40,2013-03-18 01:16:00
9:37 PM,39.2,35.6,87,30.18,3.0,NE,6.9,-,N/A,,Overcast,50,2013-03-18 01:37:00
9:53 PM,39.0,36.0,89,30.19,4.0,ENE,8.1,-,N/A,,Overcast,60,2013-03-18 01:53:00
10:20 PM,39.2,35.6,87,30.20,2.5,ENE,8.1,-,N/A,,Overcast,60,2013-03-18 02:20:00
10:34 PM,39.2,35.6,87,30.19,3.0,NE,9.2,-,N/A,,Overcast,50,2013-03-18 02:34:00
10:45 PM,39.2,35.6,87,30.20,2.5,ENE,9.2,-,0.00,Rain,Light Rain,70,2013-03-18 02:45:00
10:53 PM,39.0,36.0,89,30.19,2.5,ENE,6.9,-,0.00,Rain,Light Rain,70,2013-03-18 02:53:00
11:07 PM,39.2,35.6,87,30.19,3.0,East,8.1,-,0.01,Rain,Light Rain,80,2013-03-18 03:07:00
11:53 PM,39.0,36.0,89,30.19,6.0,ENE,9.2,-,0.01,Rain,Light Rain,70,2013-03-18 03:53:00